Wetterdaten: Montag, 16.03.2015
Datum Zeit Temp. A. Feuchte A. Luftdruck Regen Wind Richtung Richtung Sonnenschein ET UV Solar Taupunkt Windchill Windben Empfang
16.03.2015 00:00 3,8 C 61 % 1024,4 hPa 0,0 l/m 5,4 km/h (1 Bft) O-NO 75 0 min 0,000 mm 0,0 UV-I 0 W/m -3,0 C 3,8 C 7,9 km/h (2 Bft) 0,00 %
16.03.2015 00:15 3,7 C 61 % 1024,4 hPa 0,0 l/m 0,0 km/h (0 Bft) S 181 0 min 0,000 mm 0,0 UV-I 0 W/m -3,1 C 3,7 C 0,0 km/h (0 Bft) 0,00 %
16.03.2015 00:30 3,6 C 61 % 1024,4 hPa 0,0 l/m 7,9 km/h (2 Bft) S 173 0 min 0,000 mm 0,0 UV-I 0 W/m -3,2 C 2,2 C 11,9 km/h (2 Bft) 0,00 %
16.03.2015 00:45 3,5 C 61 % 1024,4 hPa 0,0 l/m 1,8 km/h (1 Bft) O 97 0 min 0,000 mm 0,0 UV-I 0 W/m -3,3 C 3,5 C 4,0 km/h (1 Bft) 0,00 %
16.03.2015 01:00 3,3 C 62 % 1024,2 hPa 0,0 l/m 10,4 km/h (2 Bft) O-SO 107 0 min 0,000 mm 0,0 UV-I 0 W/m -3,3 C -0,1 C 11,9 km/h (2 Bft) 0,00 %
16.03.2015 01:15 3,1 C 62 % 1024,5 hPa 0,0 l/m 0,0 km/h (0 Bft) S-SO 161 0 min 0,000 mm 0,0 UV-I 0 W/m -3,5 C 3,1 C 0,0 km/h (0 Bft) 0,00 %
16.03.2015 01:30 2,8 C 63 % 1024,4 hPa 0,0 l/m 2,9 km/h (1 Bft) S 174 0 min 0,000 mm 0,0 UV-I 0 W/m -3,5 C 2,8 C 7,9 km/h (2 Bft) 0,00 %
16.03.2015 01:45 2,7 C 63 % 1024,4 hPa 0,0 l/m 0,4 km/h (0 Bft) O 90 0 min 0,000 mm 0,0 UV-I 0 W/m -3,6 C 2,7 C 4,0 km/h (1 Bft) 0,00 %
16.03.2015 02:00 2,7 C 63 % 1024,2 hPa 0,0 l/m 1,8 km/h (1 Bft) O-SO 111 0 min 0,000 mm 0,0 UV-I 0 W/m -3,6 C 2,7 C 4,0 km/h (1 Bft) 0,00 %
16.03.2015 02:15 2,8 C 63 % 1024,1 hPa 0,0 l/m 7,2 km/h (2 Bft) O-SO 106 0 min 0,000 mm 0,0 UV-I 0 W/m -3,5 C 2,0 C 7,9 km/h (2 Bft) 0,00 %
16.03.2015 02:30 2,8 C 63 % 1023,9 hPa 0,0 l/m 1,8 km/h (1 Bft) O-SO 105 0 min 0,000 mm 0,0 UV-I 0 W/m -3,5 C 2,8 C 4,0 km/h (1 Bft) 0,00 %
16.03.2015 02:45 2,5 C 63 % 1023,9 hPa 0,0 l/m 0,4 km/h (0 Bft) O-SO 105 0 min 0,000 mm 0,0 UV-I 0 W/m -3,8 C 2,5 C 4,0 km/h (1 Bft) 0,00 %
16.03.2015 03:00 2,4 C 60 % 1023,9 hPa 0,0 l/m 1,8 km/h (1 Bft) O-SO 122 0 min 0,000 mm 0,0 UV-I 0 W/m -4,6 C 2,4 C 4,0 km/h (1 Bft) 0,00 %
16.03.2015 03:15 2,5 C 63 % 1024,0 hPa 0,0 l/m 4,0 km/h (1 Bft) O-SO 114 0 min 0,000 mm 0,0 UV-I 0 W/m -3,8 C 2,5 C 7,9 km/h (2 Bft) 0,00 %
16.03.2015 03:30 2,6 C 63 % 1023,9 hPa 0,0 l/m 3,2 km/h (1 Bft) O-SO 108 0 min 0,000 mm 0,0 UV-I 0 W/m -3,7 C 2,6 C 7,9 km/h (2 Bft) 0,00 %
16.03.2015 03:45 2,9 C 62 % 1024,1 hPa 0,0 l/m 4,0 km/h (1 Bft) O 87 0 min 0,000 mm 0,0 UV-I 0 W/m -3,6 C 2,9 C 7,9 km/h (2 Bft) 0,00 %
16.03.2015 04:00 2,8 C 62 % 1023,8 hPa 0,0 l/m 6,5 km/h (2 Bft) O 97 0 min 0,000 mm 0,0 UV-I 0 W/m -3,7 C 2,7 C 7,9 km/h (2 Bft) 0,00 %
16.03.2015 04:15 2,8 C 63 % 1024,2 hPa 0,0 l/m 4,3 km/h (1 Bft) O-SO 114 0 min 0,000 mm 0,0 UV-I 0 W/m -3,5 C 2,8 C 7,9 km/h (2 Bft) 0,00 %
16.03.2015 04:30 3,0 C 62 % 1024,1 hPa 0,0 l/m 0,7 km/h (0 Bft) O-SO 119 0 min 0,000 mm 0,0 UV-I 0 W/m -3,6 C 3,0 C 4,0 km/h (1 Bft) 0,00 %
16.03.2015 04:45 2,9 C 62 % 1024,3 hPa 0,0 l/m 1,8 km/h (1 Bft) O 98 0 min 0,000 mm 0,0 UV-I 0 W/m -3,6 C 2,9 C 4,0 km/h (1 Bft) 0,00 %
16.03.2015 05:00 3,3 C 60 % 1024,2 hPa 0,0 l/m 4,3 km/h (1 Bft) O 83 0 min 0,000 mm 0,0 UV-I 0 W/m -3,7 C 3,3 C 7,9 km/h (2 Bft) 0,00 %
16.03.2015 05:15 3,0 C 62 % 1024,2 hPa 0,0 l/m 0,0 km/h (0 Bft) O-NO 65 0 min 0,000 mm 0,0 UV-I 0 W/m -3,6 C 3,0 C 0,0 km/h (0 Bft) 0,00 %
16.03.2015 05:30 3,1 C 62 % 1024,4 hPa 0,0 l/m 3,2 km/h (1 Bft) O-SO 106 0 min 0,000 mm 0,0 UV-I 0 W/m -3,5 C 3,1 C 4,0 km/h (1 Bft) 0,00 %
16.03.2015 05:45 3,1 C 62 % 1024,4 hPa 0,0 l/m 4,0 km/h (1 Bft) SO 129 0 min 0,000 mm 0,0 UV-I 0 W/m -3,5 C 3,1 C 7,9 km/h (2 Bft) 0,00 %
16.03.2015 06:00 3,1 C 62 % 1024,4 hPa 0,0 l/m 1,8 km/h (1 Bft) O-SO 114 0 min 0,000 mm 0,0 UV-I 0 W/m -3,5 C 3,1 C 4,0 km/h (1 Bft) 0,00 %
16.03.2015 06:15 3,3 C 62 % 1024,5 hPa 0,0 l/m 3,2 km/h (1 Bft) O-NO 77 0 min 0,000 mm 0,0 UV-I 0 W/m -3,3 C 3,3 C 7,9 km/h (2 Bft) 0,00 %
16.03.2015 06:30 3,4 C 62 % 1024,3 hPa 0,0 l/m 1,8 km/h (1 Bft) O-NO 66 0 min 0,000 mm 0,0 UV-I 0 W/m -3,2 C 3,4 C 4,0 km/h (1 Bft) 0,00 %
16.03.2015 06:45 3,3 C 63 % 1024,7 hPa 0,0 l/m 2,9 km/h (1 Bft) O 91 0 min 0,000 mm 0,0 UV-I 7 W/m -3,1 C 3,3 C 7,9 km/h (2 Bft) 0,00 %
16.03.2015 07:00 3,5 C 61 % 1024,7 hPa 0,0 l/m 1,8 km/h (1 Bft) O-SO 109 0 min 0,000 mm 0,0 UV-I 22 W/m -3,3 C 3,5 C 4,0 km/h (1 Bft) 0,00 %
16.03.2015 07:15 3,8 C 61 % 1024,9 hPa 0,0 l/m 0,4 km/h (0 Bft) O-SO 116 0 min 0,000 mm 1,0 UV-I 37 W/m -3,0 C 3,8 C 4,0 km/h (1 Bft) 0,00 %
16.03.2015 07:30 4,2 C 60 % 1024,8 hPa 0,0 l/m 4,7 km/h (1 Bft) O-SO 108 0 min 0,000 mm 1,0 UV-I 51 W/m -2,9 C 4,2 C 7,9 km/h (2 Bft) 0,00 %
16.03.2015 07:45 4,7 C 59 % 1024,9 hPa 0,0 l/m 8,3 km/h (2 Bft) O-SO 104 0 min 0,000 mm 1,0 UV-I 76 W/m -2,6 C 3,0 C 11,9 km/h (2 Bft) 0,00 %
16.03.2015 08:00 5,0 C 59 % 1024,6 hPa 0,0 l/m 0,4 km/h (0 Bft) O-SO 109 0 min 0,000 mm 1,0 UV-I 108 W/m -2,3 C 5,0 C 4,0 km/h (1 Bft) 0,00 %
16.03.2015 08:15 5,5 C 57 % 1024,7 hPa 0,0 l/m 17,3 km/h (3 Bft) O-SO 104 0 min 0,000 mm 1,0 UV-I 128 W/m -2,3 C -1,4 C 19,8 km/h (3 Bft) 0,00 %
16.03.2015 08:30 5,7 C 57 % 1024,5 hPa 0,0 l/m 15,8 km/h (3 Bft) SO 145 0 min 0,000 mm 2,0 UV-I 143 W/m -2,1 C -0,5 C 19,8 km/h (3 Bft) 0,00 %
16.03.2015 08:45 6,1 C 57 % 1024,4 hPa 0,0 l/m 16,6 km/h (3 Bft) SO 134 0 min 0,000 mm 2,0 UV-I 159 W/m -1,8 C -0,3 C 19,8 km/h (3 Bft) 0,00 %
16.03.2015 09:00 6,6 C 56 % 1024,5 hPa 0,0 l/m 5,8 km/h (2 Bft) O-SO 115 0 min 0,000 mm 2,0 UV-I 178 W/m -1,5 C 6,6 C 7,9 km/h (2 Bft) 0,00 %
16.03.2015 09:15 6,8 C 55 % 1024,4 hPa 0,0 l/m 18,0 km/h (3 Bft) O-SO 102 0 min 0,000 mm 2,0 UV-I 183 W/m -1,6 C -0,1 C 24,1 km/h (4 Bft) 0,00 %
16.03.2015 09:30 7,4 C 55 % 1024,2 hPa 0,0 l/m 11,5 km/h (2 Bft) O-SO 109 0 min 0,000 mm 2,0 UV-I 204 W/m -1,0 C 3,8 C 15,8 km/h (3 Bft) 0,00 %
16.03.2015 09:45 7,7 C 55 % 1024,2 hPa 0,0 l/m 11,9 km/h (2 Bft) O-SO 107 0 min 0,000 mm 3,0 UV-I 216 W/m -0,8 C 3,9 C 15,8 km/h (3 Bft) 0,00 %
16.03.2015 10:00 8,6 C 53 % 1024,0 hPa 0,0 l/m 23,0 km/h (4 Bft) SO 142 15 min 0,000 mm 3,0 UV-I 302 W/m -0,4 C 0,5 C 28,1 km/h (4 Bft) 0,00 %
16.03.2015 10:15 8,9 C 52 % 1023,9 hPa 0,0 l/m 13,0 km/h (3 Bft) O 101 0 min 0,000 mm 2,0 UV-I 278 W/m -0,4 C 4,7 C 15,8 km/h (3 Bft) 0,00 %
16.03.2015 10:30 9,3 C 50 % 1023,9 hPa 0,0 l/m 15,8 km/h (3 Bft) SO 135 0 min 0,000 mm 4,0 UV-I 246 W/m -0,6 C 3,9 C 19,8 km/h (3 Bft) 0,00 %
16.03.2015 10:45 10,3 C 49 % 1023,6 hPa 0,0 l/m 6,8 km/h (2 Bft) N 357 15 min 0,000 mm 4,0 UV-I 397 W/m 0,1 C 10,0 C 11,9 km/h (2 Bft) 0,00 %
16.03.2015 11:00 10,8 C 49 % 1023,6 hPa 0,0 l/m 4,7 km/h (1 Bft) O-SO 116 15 min 0,000 mm 4,0 UV-I 381 W/m 0,5 C 10,8 C 7,9 km/h (2 Bft) 0,00 %
16.03.2015 11:15 11,1 C 46 % 1023,5 hPa 0,0 l/m 24,8 km/h (4 Bft) O 88 15 min 0,000 mm 4,0 UV-I 366 W/m -0,1 C 3,4 C 32,0 km/h (5 Bft) 0,00 %
16.03.2015 11:30 11,4 C 44 % 1023,5 hPa 0,0 l/m 9,7 km/h (2 Bft) SO 130 15 min 0,000 mm 4,0 UV-I 402 W/m -0,4 C 9,3 C 11,9 km/h (2 Bft) 0,00 %
16.03.2015 11:45 11,7 C 43 % 1023,3 hPa 0,0 l/m 17,3 km/h (3 Bft) O 99 15 min 0,000 mm 4,0 UV-I 449 W/m -0,5 C 6,4 C 19,8 km/h (3 Bft) 0,00 %
16.03.2015 12:00 12,1 C 44 % 1023,1 hPa 0,0 l/m 7,2 km/h (2 Bft) SO 130 0 min 0,000 mm 4,0 UV-I 301 W/m 0,2 C 11,6 C 11,9 km/h (2 Bft) 0,00 %
16.03.2015 12:15 12,5 C 44 % 1023,1 hPa 0,0 l/m 13,3 km/h (3 Bft) O 99 0 min 0,000 mm 3,0 UV-I 253 W/m 0,6 C 8,8 C 15,8 km/h (3 Bft) 0,00 %
16.03.2015 12:30 12,7 C 44 % 1023,1 hPa 0,0 l/m 10,4 km/h (2 Bft) O-SO 106 0 min 0,000 mm 3,0 UV-I 209 W/m 0,8 C 10,4 C 15,8 km/h (3 Bft) 0,00 %
16.03.2015 12:45 12,9 C 43 % 1023,0 hPa 0,0 l/m 16,6 km/h (3 Bft) O-SO 107 0 min 0,000 mm 3,0 UV-I 218 W/m 0,6 C 8,1 C 19,8 km/h (3 Bft) 0,00 %
16.03.2015 13:00 13,5 C 42 % 1022,9 hPa 0,0 l/m 7,2 km/h (2 Bft) O 83 0 min 0,000 mm 3,0 UV-I 283 W/m 0,8 C 13,0 C 11,9 km/h (2 Bft) 0,00 %
16.03.2015 13:15 14,0 C 37 % 1022,7 hPa 0,0 l/m 1,4 km/h (1 Bft) N-NO 27 0 min 0,000 mm 3,0 UV-I 304 W/m -0,4 C 14,0 C 4,0 km/h (1 Bft) 0,00 %
16.03.2015 13:30 14,8 C 30 % 1022,5 hPa 0,0 l/m 11,5 km/h (2 Bft) SO 131 0 min 0,000 mm 2,0 UV-I 294 W/m -2,6 C 12,2 C 15,8 km/h (3 Bft) 0,00 %
16.03.2015 13:45 14,9 C 30 % 1022,7 hPa 0,0 l/m 5,8 km/h (2 Bft) S-SO 151 0 min 0,000 mm 2,0 UV-I 241 W/m -2,5 C 14,9 C 11,9 km/h (2 Bft) 0,00 %
16.03.2015 14:00 14,7 C 30 % 1022,6 hPa 0,0 l/m 10,4 km/h (2 Bft) SO 132 0 min 0,000 mm 2,0 UV-I 238 W/m -2,7 C 12,6 C 15,8 km/h (3 Bft) 0,00 %
16.03.2015 14:15 14,7 C 30 % 1022,7 hPa 0,0 l/m 0,7 km/h (0 Bft) O-SO 115 0 min 0,000 mm 2,0 UV-I 214 W/m -2,7 C 14,7 C 4,0 km/h (1 Bft) 0,00 %
16.03.2015 14:30 14,2 C 33 % 1022,8 hPa 0,0 l/m 5,4 km/h (1 Bft) O-NO 70 0 min 0,000 mm 2,0 UV-I 188 W/m -1,8 C 14,2 C 11,9 km/h (2 Bft) 0,00 %
16.03.2015 14:45 13,4 C 36 % 1022,9 hPa 0,0 l/m 11,5 km/h (2 Bft) O 97 0 min 0,000 mm 2,0 UV-I 187 W/m -1,4 C 10,6 C 15,8 km/h (3 Bft) 0,00 %
16.03.2015 15:00 12,9 C 38 % 1023,0 hPa 0,0 l/m 15,8 km/h (3 Bft) O-SO 120 0 min 0,000 mm 1,0 UV-I 162 W/m -1,1 C 8,4 C 19,8 km/h (3 Bft) 0,00 %
16.03.2015 15:15 12,6 C 38 % 1023,0 hPa 0,0 l/m 11,9 km/h (2 Bft) O-SO 118 0 min 0,000 mm 1,0 UV-I 140 W/m -1,3 C 9,6 C 15,8 km/h (3 Bft) 0,00 %
16.03.2015 15:30 12,6 C 38 % 1022,9 hPa 0,0 l/m 3,2 km/h (1 Bft) O-SO 105 0 min 0,000 mm 1,0 UV-I 136 W/m -1,3 C 12,6 C 7,9 km/h (2 Bft) 0,00 %
16.03.2015 15:45 12,4 C 41 % 1023,2 hPa 0,0 l/m 4,7 km/h (1 Bft) O-SO 112 0 min 0,000 mm 1,0 UV-I 128 W/m -0,5 C 12,4 C 7,9 km/h (2 Bft) 0,00 %
16.03.2015 16:00 12,2 C 41 % 1023,5 hPa 0,0 l/m 9,7 km/h (2 Bft) O-SO 122 0 min 0,000 mm 1,0 UV-I 121 W/m -0,7 C 10,2 C 11,9 km/h (2 Bft) 0,00 %
16.03.2015 16:15 12,0 C 41 % 1023,2 hPa 0,0 l/m 10,8 km/h (2 Bft) O-SO 105 0 min 0,000 mm 1,0 UV-I 112 W/m -0,8 C 9,4 C 15,8 km/h (3 Bft) 0,00 %
16.03.2015 16:30 11,7 C 41 % 1023,4 hPa 0,0 l/m 11,5 km/h (2 Bft) O 85 0 min 0,000 mm 1,0 UV-I 95 W/m -1,1 C 8,7 C 15,8 km/h (3 Bft) 0,00 %
16.03.2015 16:45 11,5 C 40 % 1023,4 hPa 0,0 l/m 0,4 km/h (0 Bft) S 173 0 min 0,000 mm 1,0 UV-I 72 W/m -1,6 C 11,5 C 4,0 km/h (1 Bft) 0,00 %
16.03.2015 17:00 11,2 C 41 % 1023,7 hPa 0,0 l/m 7,2 km/h (2 Bft) O-SO 109 0 min 0,000 mm 0,0 UV-I 53 W/m -1,6 C 10,6 C 11,9 km/h (2 Bft) 0,00 %
16.03.2015 17:15 10,9 C 42 % 1023,7 hPa 0,0 l/m 9,7 km/h (2 Bft) O-SO 108 0 min 0,000 mm 0,0 UV-I 32 W/m -1,5 C 8,8 C 11,9 km/h (2 Bft) 0,00 %
16.03.2015 17:30 10,7 C 41 % 1023,8 hPa 0,0 l/m 2,2 km/h (1 Bft) O-SO 116 0 min 0,000 mm 0,0 UV-I 18 W/m -2,0 C 10,7 C 4,0 km/h (1 Bft) 0,00 %
16.03.2015 17:45 10,6 C 42 % 1024,1 hPa 0,0 l/m 7,2 km/h (2 Bft) O-SO 108 0 min 0,000 mm 0,0 UV-I 4 W/m -1,8 C 10,0 C 11,9 km/h (2 Bft) 0,00 %
16.03.2015 18:00 10,4 C 45 % 1024,2 hPa 0,0 l/m 9,7 km/h (2 Bft) O 95 0 min 0,000 mm 0,0 UV-I 0 W/m -1,0 C 8,2 C 11,9 km/h (2 Bft) 0,00 %
16.03.2015 18:15 9,9 C 49 % 1024,2 hPa 0,0 l/m 13,0 km/h (3 Bft) O 96 0 min 0,000 mm 0,0 UV-I 0 W/m -0,3 C 5,9 C 15,8 km/h (3 Bft) 0,00 %
16.03.2015 18:30 9,4 C 50 % 1024,5 hPa 0,0 l/m 9,4 km/h (2 Bft) O-NO 72 0 min 0,000 mm 0,0 UV-I 0 W/m -0,5 C 7,3 C 15,8 km/h (3 Bft) 0,00 %
16.03.2015 18:45 9,1 C 50 % 1024,7 hPa 0,0 l/m 17,3 km/h (3 Bft) O-SO 114 0 min 0,000 mm 0,0 UV-I 0 W/m -0,8 C 3,1 C 24,1 km/h (4 Bft) 0,00 %
16.03.2015 19:00 8,9 C 51 % 1024,8 hPa 0,0 l/m 4,0 km/h (1 Bft) SO 144 0 min 0,000 mm 0,0 UV-I 0 W/m -0,7 C 8,9 C 7,9 km/h (2 Bft) 0,00 %
16.03.2015 19:15 8,5 C 51 % 1025,1 hPa 0,0 l/m 11,5 km/h (2 Bft) O-SO 104 0 min 0,000 mm 0,0 UV-I 0 W/m -1,0 C 5,1 C 15,8 km/h (3 Bft) 0,00 %
16.03.2015 19:30 8,4 C 53 % 1025,0 hPa 0,0 l/m 10,8 km/h (2 Bft) O-SO 102 0 min 0,000 mm 0,0 UV-I 0 W/m -0,6 C 5,3 C 11,9 km/h (2 Bft) 0,00 %
16.03.2015 19:45 8,3 C 53 % 1025,1 hPa 0,0 l/m 15,5 km/h (3 Bft) O-SO 104 0 min 0,000 mm 0,0 UV-I 0 W/m -0,7 C 2,9 C 19,8 km/h (3 Bft) 0,00 %
16.03.2015 20:00 8,1 C 52 % 1025,3 hPa 0,0 l/m 11,5 km/h (2 Bft) O-SO 107 0 min 0,000 mm 0,0 UV-I 0 W/m -1,2 C 4,6 C 15,8 km/h (3 Bft) 0,00 %
16.03.2015 20:15 8,2 C 52 % 1025,6 hPa 0,0 l/m 9,7 km/h (2 Bft) SO 124 0 min 0,000 mm 0,0 UV-I 0 W/m -1,1 C 5,8 C 15,8 km/h (3 Bft) 0,00 %
16.03.2015 20:30 8,0 C 53 % 1025,7 hPa 0,0 l/m 10,8 km/h (2 Bft) O-SO 120 0 min 0,000 mm 0,0 UV-I 0 W/m -1,0 C 4,9 C 15,8 km/h (3 Bft) 0,00 %
16.03.2015 20:45 8,0 C 53 % 1025,8 hPa 0,0 l/m 11,9 km/h (2 Bft) O-NO 72 0 min 0,000 mm 0,0 UV-I 0 W/m -1,0 C 4,3 C 15,8 km/h (3 Bft) 0,00 %
16.03.2015 21:00 7,9 C 54 % 1025,8 hPa 0,0 l/m 3,2 km/h (1 Bft) O-SO 105 0 min 0,000 mm 0,0 UV-I 0 W/m -0,8 C 7,9 C 7,9 km/h (2 Bft) 0,00 %
16.03.2015 21:15 7,7 C 55 % 1025,5 hPa 0,0 l/m 12,2 km/h (2 Bft) O-SO 107 0 min 0,000 mm 0,0 UV-I 0 W/m -0,8 C 3,8 C 15,8 km/h (3 Bft) 0,00 %
16.03.2015 21:30 7,7 C 55 % 1025,6 hPa 0,0 l/m 7,9 km/h (2 Bft) O 97 0 min 0,000 mm 0,0 UV-I 0 W/m -0,8 C 6,5 C 11,9 km/h (2 Bft) 0,00 %
16.03.2015 21:45 7,6 C 55 % 1025,7 hPa 0,0 l/m 6,8 km/h (2 Bft) O 101 0 min 0,000 mm 0,0 UV-I 0 W/m -0,9 C 7,3 C 11,9 km/h (2 Bft) 0,00 %
16.03.2015 22:00 7,6 C 55 % 1025,8 hPa 0,0 l/m 0,4 km/h (0 Bft) S 180 0 min 0,000 mm 0,0 UV-I 0 W/m -0,9 C 7,6 C 4,0 km/h (1 Bft) 0,00 %
16.03.2015 22:15 7,7 C 54 % 1025,6 hPa 0,0 l/m 13,0 km/h (3 Bft) O 97 0 min 0,000 mm 0,0 UV-I 0 W/m -1,0 C 3,3 C 19,8 km/h (3 Bft) 0,00 %
16.03.2015 22:30 7,6 C 55 % 1025,8 hPa 0,0 l/m 5,4 km/h (1 Bft) S 185 0 min 0,000 mm 0,0 UV-I 0 W/m -0,9 C 7,6 C 11,9 km/h (2 Bft) 0,00 %
16.03.2015 22:45 7,5 C 56 % 1026,0 hPa 0,0 l/m 12,2 km/h (2 Bft) O 96 0 min 0,000 mm 0,0 UV-I 0 W/m -0,7 C 3,5 C 15,8 km/h (3 Bft) 0,00 %
16.03.2015 23:00 7,4 C 55 % 1025,9 hPa 0,0 l/m 11,5 km/h (2 Bft) O-SO 105 0 min 0,000 mm 0,0 UV-I 0 W/m -1,0 C 3,8 C 15,8 km/h (3 Bft) 0,00 %
16.03.2015 23:15 7,3 C 55 % 1025,8 hPa 0,0 l/m 14,8 km/h (3 Bft) O 95 0 min 0,000 mm 0,0 UV-I 0 W/m -1,1 C 2,0 C 19,8 km/h (3 Bft) 0,00 %
16.03.2015 23:30 7,4 C 55 % 1025,9 hPa 0,0 l/m 3,2 km/h (1 Bft) O-SO 119 0 min 0,000 mm 0,0 UV-I 0 W/m -1,0 C 7,4 C 7,9 km/h (2 Bft) 0,00 %
16.03.2015 23:45 7,3 C 56 % 1025,9 hPa 0,0 l/m 6,5 km/h (2 Bft) SO 125 0 min 0,000 mm 0,0 UV-I 0 W/m -0,9 C 7,2 C 7,9 km/h (2 Bft) 0,00 %
_ Min-Zeit 03:00 13:30 13:30 - 00:15 - - - - - - 03:00 08:15 00:15 00:00
Minimum _ 2,4 C 30 % 1022,5 hPa - 0,0 km/h (0 Bft) - - - - - - -4,6 C -1,4 C 0,0 km/h (0 Bft) 0,00 %
_ Max-Zeit 13:45 01:30 22:45 00:00 11:15 - - 10:00 00:00 10:30 11:45 13:00 13:45 11:15 00:00
Maximum _ 14,9 C 63 % 1026,0 hPa 0,0 l/m 24,8 km/h
O (4 Bft)
- - 15 min 0,000 mm 4,0 UV-I 449 W/m 0,8 C 14,9 C 32,0 km/h
O (5 Bft)
0,00 %
Durchschnitt _ 7,7 C 52 % 1024,2 hPa #0,0 l/m 7,8 km/h (2 Bft) O-SO - #1:30 h #0,000 mm 2,2 UV-I 185 W/m -1,8 C 5,9 C 11,4 km/h (2 Bft) 0,00 %